createdAt,value
2023-01-18T04:58:19.225Z,96634.94
2023-01-18T05:00:47.666Z,96640.25
2023-01-18T05:03:16.177Z,96637.22
2023-01-18T05:05:44.365Z,96637.69
2023-01-18T05:08:12.563Z,96642.81
2023-01-18T05:10:40.762Z,96640.06
2023-01-18T05:13:08.952Z,96648.81
2023-01-18T05:15:38.501Z,96650.59
2023-01-18T05:18:07.168Z,96652.19
2023-01-18T05:20:35.360Z,96650.66
2023-01-18T05:23:11.165Z,96655.13
2023-01-18T05:25:40.222Z,96651.81
2023-01-18T05:28:09.785Z,96657.06
2023-01-18T05:30:43.033Z,96665.28
2023-01-18T05:33:11.314Z,96667.69
2023-01-18T05:35:39.881Z,96671.44
2023-01-18T05:38:08.947Z,96674.03
2023-01-18T05:40:37.102Z,96676.44
2023-01-18T05:43:05.483Z,96674.03
2023-01-18T05:45:34.319Z,96677.22
2023-01-18T05:48:04.025Z,96682.50
2023-01-18T05:50:32.279Z,96688.03
2023-01-18T05:53:01.316Z,96684.81
2023-01-18T05:55:29.728Z,96699.78
2023-01-18T05:57:57.960Z,96694.56
2023-01-18T06:00:26.552Z,96697.59
2023-01-18T06:02:55.331Z,96704.72
2023-01-18T06:05:25.989Z,96707.84
2023-01-18T06:07:54.267Z,96707.03
2023-01-18T06:10:22.523Z,96714.28
2023-01-18T06:12:50.838Z,96720.25
2023-01-18T06:15:19.308Z,96718.22
2023-01-18T06:17:47.767Z,96721.06
2023-01-18T06:20:16.407Z,96725.44
2023-01-18T06:22:46.766Z,96728.41
2023-01-18T06:25:15.039Z,96732.16
2023-01-18T06:27:43.195Z,96732.94
2023-01-18T06:30:12.426Z,96732.75
2023-01-18T06:32:40.596Z,96736.16
2023-01-18T06:35:09.497Z,96740.53
2023-01-18T06:37:37.723Z,96748.28
2023-01-18T06:40:10.345Z,96752.84
2023-01-18T06:42:38.869Z,96740.78
2023-01-18T06:45:08.163Z,96759.53
2023-01-18T06:47:36.337Z,96759.09
2023-01-18T06:50:06.864Z,96766.69
2023-01-18T06:52:35.010Z,96771.84
2023-01-18T06:55:05.225Z,96777.03
2023-01-18T06:57:34.847Z,96779.00
2023-01-18T07:00:06.053Z,96777.03
2023-01-18T07:02:34.295Z,96769.16
2023-01-18T07:05:08.689Z,96781.22
2023-01-18T07:07:37.234Z,96785.25
2023-01-18T07:10:06.253Z,96801.69
2023-01-18T07:12:36.014Z,96793.72
2023-01-18T07:15:20.868Z,96793.91
2023-01-18T07:17:52.859Z,96804.53
2023-01-18T07:20:21.109Z,96799.63
2023-01-18T07:22:52.982Z,96806.16
2023-01-18T13:35:20.073Z,97298.66
2023-01-18T13:37:51.575Z,97302.09
2023-01-18T13:40:30.815Z,97311.78
2023-01-18T13:42:59.728Z,97309.84
2023-01-18T13:45:30.401Z,97320.53
2023-01-18T13:48:03.387Z,97330.13
2023-01-18T13:50:48.589Z,97330.41
2023-01-18T13:53:30.672Z,97340.53
2023-01-18T13:56:28.609Z,97342.84
2023-01-18T13:59:04.090Z,97346.34
2023-01-18T14:01:37.017Z,97346.63
2023-01-18T14:04:23.935Z,97346.50
2023-01-18T14:06:56.166Z,97357.78
2023-01-18T14:09:36.716Z,97361.91
2023-01-18T14:12:07.358Z,97369.97
2023-01-18T14:14:37.764Z,97369.44
2023-01-18T14:17:16.813Z,97376.59
2023-01-18T14:20:41.367Z,97388.91
2023-01-18T14:23:39.583Z,97392.41
2023-01-18T14:26:09.652Z,97399.47
2023-01-18T14:28:44.291Z,97408.31
2023-01-18T14:31:24.555Z,97411.13
2023-01-18T14:33:52.806Z,97416.69
2023-01-18T14:36:24.970Z,97422.53
2023-01-18T14:39:13.675Z,97427.84
2023-01-18T14:41:44.329Z,97433.06
2023-01-18T14:44:19.180Z,97432.53
2023-01-18T14:46:51.880Z,97452.84
2023-01-18T14:49:30.102Z,97452.16
2023-01-18T14:51:59.683Z,97461.03
2023-01-18T14:54:29.903Z,97461.06
2023-01-18T14:57:08.782Z,97468.03
2023-01-18T14:59:37.031Z,97472.78
2023-01-18T15:02:17.853Z,97471.91
2023-01-18T15:04:47.432Z,97482.63
2023-01-18T15:07:21.403Z,97479.75
2023-01-18T15:09:51.001Z,97484.06
2023-01-18T15:12:24.736Z,97484.84
2023-01-18T15:14:55.489Z,97486.38
2023-01-18T15:17:26.179Z,97487.06
2023-01-18T15:19:57.771Z,97502.38
2023-01-18T15:22:30.721Z,97499.66
2023-01-18T15:25:01.598Z,97514.09
2023-01-18T15:27:33.256Z,97507.28
2023-01-18T15:30:02.825Z,97520.91
2023-01-18T15:32:33.570Z,97529.56
2023-01-18T15:35:02.981Z,97529.13
2023-01-18T15:37:34.543Z,97531.59
2023-01-18T15:40:24.210Z,97528.53
2023-01-18T15:43:07.424Z,97544.47
2023-01-18T15:45:38.998Z,97552.31
2023-01-18T15:48:10.693Z,97556.34
2023-01-18T15:50:44.964Z,97567.28
2023-01-18T15:53:19.502Z,97574.47
2023-01-18T15:55:52.085Z,97568.69
2023-01-18T15:58:32.268Z,97572.63
2023-01-18T16:01:03.230Z,97585.47
2023-01-18T16:03:37.744Z,97581.09
